sensor_id;sensor_type;location;lat;lon;timestamp;pressure;altitude;pressure_sealevel;temperature;humidity
10127;BME280;13080;42.608;23.362;2023-02-12T00:00:03;150866.69;;;-0.96;48.32
10127;BME280;13080;42.608;23.362;2023-02-12T00:02:30;150865.41;;;-0.96;48.34
10127;BME280;13080;42.608;23.362;2023-02-12T00:04:57;150858.94;;;-0.99;47.79
10127;BME280;13080;42.608;23.362;2023-02-12T00:07:24;150852.50;;;-1.01;48.74
10127;BME280;13080;42.608;23.362;2023-02-12T00:09:52;150852.50;;;-1.01;47.76
10127;BME280;13080;42.608;23.362;2023-02-12T00:12:19;150840.94;;;-1.06;49.56
10127;BME280;13080;42.608;23.362;2023-02-12T00:14:45;150824.19;;;-1.13;48.23
10127;BME280;13080;42.608;23.362;2023-02-12T00:17:12;150813.91;;;-1.17;48.93
10127;BME280;13080;42.608;23.362;2023-02-12T00:19:39;150842.19;;;-1.06;48.15
10127;BME280;13080;42.608;23.362;2023-02-12T00:22:06;150857.66;;;-0.99;48.48
10127;BME280;13080;42.608;23.362;2023-02-12T00:24:32;150866.69;;;-0.96;48.32
10127;BME280;13080;42.608;23.362;2023-02-12T00:27:00;150852.50;;;-1.01;48.28
10127;BME280;13080;42.608;23.362;2023-02-12T00:29:27;150867.97;;;-0.95;48.03
10127;BME280;13080;42.608;23.362;2023-02-12T00:31:54;150883.41;;;-0.89;47.38
10127;BME280;13080;42.608;23.362;2023-02-12T00:34:20;150903.97;;;-0.81;47.88
10127;BME280;13080;42.608;23.362;2023-02-12T00:36:47;150889.84;;;-0.87;47.52
10127;BME280;13080;42.608;23.362;2023-02-12T00:39:14;150896.25;;;-0.84;47.61
10127;BME280;13080;42.608;23.362;2023-02-12T00:41:41;150909.13;;;-0.79;48.43
10127;BME280;13080;42.608;23.362;2023-02-12T00:44:09;150902.69;;;-0.81;49.26
10127;BME280;13080;42.608;23.362;2023-02-12T00:46:35;150885.97;;;-0.88;48.89
10127;BME280;13080;42.608;23.362;2023-02-12T00:49:02;150865.41;;;-0.96;47.63
10127;BME280;13080;42.608;23.362;2023-02-12T00:51:29;150864.06;;;-0.97;47.64
10127;BME280;13080;42.608;23.362;2023-02-12T00:53:56;150862.81;;;-0.97;48.37
10127;BME280;13080;42.608;23.362;2023-02-12T00:56:22;150869.22;;;-0.95;47.43
10127;BME280;13080;42.608;23.362;2023-02-12T00:58:49;150864.06;;;-0.97;48.54
10127;BME280;13080;42.608;23.362;2023-02-12T01:01:17;150846.06;;;-1.04;48.31
10127;BME280;13080;42.608;23.362;2023-02-12T01:03:44;150843.53;;;-1.05;48.71
10127;BME280;13080;42.608;23.362;2023-02-12T01:06:11;150860.25;;;-0.98;48.20
10127;BME280;13080;42.608;23.362;2023-02-12T01:08:38;150869.22;;;-0.95;48.21
10127;BME280;13080;42.608;23.362;2023-02-12T01:11:05;150862.81;;;-0.97;49.38
10127;BME280;13080;42.608;23.362;2023-02-12T01:13:33;150848.69;;;-1.03;48.71
10127;BME280;13080;42.608;23.362;2023-02-12T01:16:02;150833.22;;;-1.09;49.37
10127;BME280;13080;42.608;23.362;2023-02-12T01:18:32;150828.06;;;-1.11;49.96
10127;BME280;13080;42.608;23.362;2023-02-12T01:20:59;150848.69;;;-1.03;49.34
10127;BME280;13080;42.608;23.362;2023-02-12T01:23:25;150844.81;;;-1.05;50.00
10127;BME280;13080;42.608;23.362;2023-02-12T01:25:52;150874.38;;;-0.93;49.06
10127;BME280;13080;42.608;23.362;2023-02-12T01:28:19;150879.53;;;-0.91;50.22
10127;BME280;13080;42.608;23.362;2023-02-12T01:30:45;150906.56;;;-0.80;48.43
10127;BME280;13080;42.608;23.362;2023-02-12T01:33:12;150905.28;;;-0.80;49.29
10127;BME280;13080;42.608;23.362;2023-02-12T01:35:40;150893.72;;;-0.85;50.04
10127;BME280;13080;42.608;23.362;2023-02-12T01:38:07;150874.38;;;-0.93;49.39
10127;BME280;13080;42.608;23.362;2023-02-12T01:40:34;150883.41;;;-0.89;50.33
10127;BME280;13080;42.608;23.362;2023-02-12T01:43:02;150880.81;;;-0.90;50.72
10127;BME280;13080;42.608;23.362;2023-02-12T01:45:45;150861.53;;;-0.98;51.82
10127;BME280;13080;42.608;23.362;2023-02-12T01:48:13;150869.22;;;-0.95;51.04
10127;BME280;13080;42.608;23.362;2023-02-12T01:50:43;150896.25;;;-0.84;50.14
10127;BME280;13080;42.608;23.362;2023-02-12T01:53:10;150894.97;;;-0.85;50.91
10127;BME280;13080;42.608;23.362;2023-02-12T01:55:45;150882.13;;;-0.90;50.74
10127;BME280;13080;42.608;23.362;2023-02-12T01:58:13;150875.66;;;-0.92;50.46
10127;BME280;13080;42.608;23.362;2023-02-12T02:00:40;150871.81;;;-0.94;51.24
10127;BME280;13080;42.608;23.362;2023-02-12T02:03:07;150857.66;;;-0.99;52.45
10127;BME280;13080;42.608;23.362;2023-02-12T02:05:42;150860.25;;;-0.98;52.19
10127;BME280;13080;42.608;23.362;2023-02-12T02:08:12;150849.94;;;-1.02;53.14
10127;BME280;13080;42.608;23.362;2023-02-12T02:10:39;150860.25;;;-0.98;53.69
10127;BME280;13080;42.608;23.362;2023-02-12T02:13:06;150843.53;;;-1.05;52.91
10127;BME280;13080;42.608;23.362;2023-02-12T02:15:53;150834.50;;;-1.09;53.65
10127;BME280;13080;42.608;23.362;2023-02-12T02:18:26;150847.34;;;-1.03;53.34
10127;BME280;13080;42.608;23.362;2023-02-12T02:21:15;150848.69;;;-1.03;54.17
10127;BME280;13080;42.608;23.362;2023-02-12T02:27:14;150819.06;;;-1.15;54.29
10127;BME280;13080;42.608;23.362;2023-02-12T02:32:49;150775.34;;;-1.32;56.09
10127;BME280;13080;42.608;23.362;2023-02-12T02:35:23;150777.91;;;-1.31;57.68
10127;BME280;13080;42.608;23.362;2023-02-12T02:37:59;150813.91;;;-1.17;57.76
10127;BME280;13080;42.608;23.362;2023-02-12T02:40:32;150824.19;;;-1.13;57.67
10127;BME280;13080;42.608;23.362;2023-02-12T02:43:05;150843.53;;;-1.05;57.72
10127;BME280;13080;42.608;23.362;2023-02-12T02:45:37;150844.81;;;-1.05;58.80
10127;BME280;13080;42.608;23.362;2023-02-12T02:48:11;150849.94;;;-1.02;57.49
10127;BME280;13080;42.608;23.362;2023-02-12T02:50:43;150847.34;;;-1.03;58.84
10127;BME280;13080;42.608;23.362;2023-02-12T02:53:15;150865.41;;;-0.96;57.42
10127;BME280;13080;42.608;23.362;2023-02-12T02:55:48;150870.50;;;-0.94;57.71
10127;BME280;13080;42.608;23.362;2023-02-12T02:58:20;150865.41;;;-0.96;58.86
10127;BME280;13080;42.608;23.362;2023-02-12T03:00:50;150861.53;;;-0.98;57.71
10127;BME280;13080;42.608;23.362;2023-02-12T03:03:24;150856.38;;;-1.00;57.57
10127;BME280;13080;42.608;23.362;2023-02-12T03:05:55;150864.06;;;-0.97;57.96
10127;BME280;13080;42.608;23.362;2023-02-12T03:08:27;150874.38;;;-0.93;58.02
10127;BME280;13080;42.608;23.362;2023-02-12T03:11:01;150866.69;;;-0.96;58.19
10127;BME280;13080;42.608;23.362;2023-02-12T03:13:33;150858.94;;;-0.99;59.02
10127;BME280;13080;42.608;23.362;2023-02-12T03:16:06;150838.38;;;-1.07;58.32
10127;BME280;13080;42.608;23.362;2023-02-12T03:18:40;150828.06;;;-1.11;58.94
10127;BME280;13080;42.608;23.362;2023-02-12T03:21:12;150846.06;;;-1.04;60.13
10127;BME280;13080;42.608;23.362;2023-02-12T03:23:45;150851.22;;;-1.02;59.78
10127;BME280;13080;42.608;23.362;2023-02-12T03:26:19;150865.41;;;-0.96;59.53
10127;BME280;13080;42.608;23.362;2023-02-12T03:28:47;150837.09;;;-1.08;60.80
10127;BME280;13080;42.608;23.362;2023-02-12T03:31:23;150838.38;;;-1.07;60.26
10127;BME280;13080;42.608;23.362;2023-02-12T03:34:03;150847.34;;;-1.03;62.04
10127;BME280;13080;42.608;23.362;2023-02-12T03:36:37;150870.50;;;-0.94;60.26
10127;BME280;13080;42.608;23.362;2023-02-12T03:39:11;150880.81;;;-0.90;61.29
10127;BME280;13080;42.608;23.362;2023-02-12T03:41:43;150919.41;;;-0.75;61.32
10127;BME280;13080;42.608;23.362;2023-02-12T03:44:17;150913.00;;;-0.77;60.84
10127;BME280;13080;42.608;23.362;2023-02-12T03:46:57;150914.28;;;-0.77;60.15
10127;BME280;13080;42.608;23.362;2023-02-12T03:49:29;150931.00;;;-0.70;57.89
10127;BME280;13080;42.608;23.362;2023-02-12T03:51:58;150942.59;;;-0.66;58.00
10127;BME280;13080;42.608;23.362;2023-02-12T03:54:25;150955.50;;;-0.60;57.67
10127;BME280;13080;42.608;23.362;2023-02-12T03:56:54;150950.34;;;-0.63;57.85
10127;BME280;13080;42.608;23.362;2023-02-12T03:59:24;150973.50;;;-0.53;55.77
10127;BME280;13080;42.608;23.362;2023-02-12T04:01:52;150970.91;;;-0.54;57.30
10127;BME280;13080;42.608;23.362;2023-02-12T04:04:20;150965.75;;;-0.56;56.91
10127;BME280;13080;42.608;23.362;2023-02-12T04:06:49;150960.59;;;-0.58;58.87
10127;BME280;13080;42.608;23.362;2023-02-12T04:09:16;150956.75;;;-0.60;57.49
10127;BME280;13080;42.608;23.362;2023-02-12T04:14:35;150942.59;;;-0.66;58.41
10127;BME280;13080;42.608;23.362;2023-02-12T04:17:11;150929.72;;;-0.71;58.95
10127;BME280;13080;42.608;23.362;2023-02-12T04:19:48;150942.59;;;-0.66;58.93
10127;BME280;13080;42.608;23.362;2023-02-12T04:22:29;150919.41;;;-0.75;60.24
10127;BME280;13080;42.608;23.362;2023-02-12T04:25:09;150896.25;;;-0.84;60.08
10127;BME280;13080;42.608;23.362;2023-02-12T04:27:44;150901.41;;;-0.82;59.75
10127;BME280;13080;42.608;23.362;2023-02-12T04:30:19;150887.22;;;-0.88;60.01
10127;BME280;13080;42.608;23.362;2023-02-12T04:32:49;150876.97;;;-0.92;60.21
10127;BME280;13080;42.608;23.362;2023-02-12T04:35:21;150869.22;;;-0.95;60.15
10127;BME280;13080;42.608;23.362;2023-02-12T04:37:54;150862.81;;;-0.97;60.29
10127;BME280;13080;42.608;23.362;2023-02-12T04:40:23;150842.19;;;-1.06;61.20
10127;BME280;13080;42.608;23.362;2023-02-12T04:42:51;150789.47;;;-1.27;62.59
10127;BME280;13080;42.608;23.362;2023-02-12T04:45:21;150762.44;;;-1.37;64.64
10127;BME280;13080;42.608;23.362;2023-02-12T04:48:07;150776.63;;;-1.32;62.91
10127;BME280;13080;42.608;23.362;2023-02-12T04:50:38;150757.31;;;-1.39;64.63
10127;BME280;13080;42.608;23.362;2023-02-12T04:53:07;150752.16;;;-1.41;65.51
10127;BME280;13080;42.608;23.362;2023-02-12T04:55:34;150720.03;;;-1.54;66.88
10127;BME280;13080;42.608;23.362;2023-02-12T04:58:01;150707.13;;;-1.59;68.09
10127;BME280;13080;42.608;23.362;2023-02-12T05:00:28;150682.72;;;-1.69;67.81
10127;BME280;13080;42.608;23.362;2023-02-12T05:02:55;150684.00;;;-1.69;65.36
10127;BME280;13080;42.608;23.362;2023-02-12T05:05:21;150680.19;;;-1.70;66.27
10127;BME280;13080;42.608;23.362;2023-02-12T05:07:48;150671.16;;;-1.74;66.79
10127;BME280;13080;42.608;23.362;2023-02-12T05:10:16;150672.44;;;-1.73;64.63
10127;BME280;13080;42.608;23.362;2023-02-12T05:12:43;150684.00;;;-1.69;66.37
10127;BME280;13080;42.608;23.362;2023-02-12T05:15:10;150695.56;;;-1.64;65.09
10127;BME280;13080;42.608;23.362;2023-02-12T05:17:37;150704.59;;;-1.60;63.03
10127;BME280;13080;42.608;23.362;2023-02-12T05:20:04;150770.19;;;-1.34;60.91
10127;BME280;13080;42.608;23.362;2023-02-12T05:22:31;150798.50;;;-1.23;61.04
10127;BME280;13080;42.608;23.362;2023-02-12T05:24:58;150822.94;;;-1.13;59.90
10127;BME280;13080;42.608;23.362;2023-02-12T05:27:26;150829.34;;;-1.11;61.23
10127;BME280;13080;42.608;23.362;2023-02-12T05:29:53;150848.69;;;-1.03;62.67
10127;BME280;13080;42.608;23.362;2023-02-12T05:32:21;150822.94;;;-1.13;64.81
10127;BME280;13080;42.608;23.362;2023-02-12T05:34:47;150781.78;;;-1.30;67.44
10127;BME280;13080;42.608;23.362;2023-02-12T05:37:14;150758.63;;;-1.39;72.03
10127;BME280;13080;42.608;23.362;2023-02-12T05:39:41;150740.59;;;-1.46;74.05
10127;BME280;13080;42.608;23.362;2023-02-12T05:42:07;150712.28;;;-1.57;74.85
10127;BME280;13080;42.608;23.362;2023-02-12T05:44:36;150720.03;;;-1.54;75.70
10127;BME280;13080;42.608;23.362;2023-02-12T05:47:03;150709.75;;;-1.58;75.13
10127;BME280;13080;42.608;23.362;2023-02-12T05:49:29;150712.28;;;-1.57;73.66
10127;BME280;13080;42.608;23.362;2023-02-12T05:51:56;150694.28;;;-1.64;72.95
10127;BME280;13080;42.608;23.362;2023-02-12T05:54:23;150690.44;;;-1.66;72.35
10127;BME280;13080;42.608;23.362;2023-02-12T05:56:49;150705.88;;;-1.60;72.41
10127;BME280;13080;42.608;23.362;2023-02-12T05:59:18;150723.88;;;-1.53;73.73
10127;BME280;13080;42.608;23.362;2023-02-12T06:01:48;150739.31;;;-1.47;74.64
10127;BME280;13080;42.608;23.362;2023-02-12T06:04:18;150741.91;;;-1.45;74.73
10127;BME280;13080;42.608;23.362;2023-02-12T06:06:45;150743.19;;;-1.45;75.11
10127;BME280;13080;42.608;23.362;2023-02-12T06:09:13;150757.31;;;-1.39;75.72
10127;BME280;13080;42.608;23.362;2023-02-12T06:11:40;150757.31;;;-1.39;75.71
10127;BME280;13080;42.608;23.362;2023-02-12T06:14:09;150745.72;;;-1.44;75.71
10127;BME280;13080;42.608;23.362;2023-02-12T06:16:37;150738.03;;;-1.47;75.78
10127;BME280;13080;42.608;23.362;2023-02-12T06:19:05;150739.31;;;-1.47;75.91
10127;BME280;13080;42.608;23.362;2023-02-12T06:21:33;150754.75;;;-1.40;76.41
10127;BME280;13080;42.608;23.362;2023-02-12T06:24:00;150754.75;;;-1.40;76.42
10127;BME280;13080;42.608;23.362;2023-02-12T06:26:27;150762.44;;;-1.37;76.71
10127;BME280;13080;42.608;23.362;2023-02-12T06:28:54;150766.31;;;-1.36;75.40
10127;BME280;13080;42.608;23.362;2023-02-12T06:31:23;150770.19;;;-1.34;76.13
10127;BME280;13080;42.608;23.362;2023-02-12T06:33:52;150767.59;;;-1.35;76.16
10127;BME280;13080;42.608;23.362;2023-02-12T06:36:21;150759.91;;;-1.38;78.09
10127;BME280;13080;42.608;23.362;2023-02-12T06:38:48;150753.47;;;-1.41;78.16
10127;BME280;13080;42.608;23.362;2023-02-12T06:41:14;150771.47;;;-1.34;78.72
10127;BME280;13080;42.608;23.362;2023-02-12T06:43:41;150768.88;;;-1.35;79.25
10127;BME280;13080;42.608;23.362;2023-02-12T06:46:09;150752.16;;;-1.41;80.34
10127;BME280;13080;42.608;23.362;2023-02-12T06:48:36;150753.47;;;-1.41;79.08
10127;BME280;13080;42.608;23.362;2023-02-12T06:51:04;150754.75;;;-1.40;78.64
10127;BME280;13080;42.608;23.362;2023-02-12T06:53:33;150763.72;;;-1.37;78.95
10127;BME280;13080;42.608;23.362;2023-02-12T06:56:00;150752.16;;;-1.41;77.87
10127;BME280;13080;42.608;23.362;2023-02-12T06:58:27;150770.19;;;-1.34;78.52
10127;BME280;13080;42.608;23.362;2023-02-12T07:00:54;150741.91;;;-1.45;78.42
10127;BME280;13080;42.608;23.362;2023-02-12T07:03:21;150725.19;;;-1.52;77.98
10127;BME280;13080;42.608;23.362;2023-02-12T07:05:48;150744.44;;;-1.44;79.23
10127;BME280;13080;42.608;23.362;2023-02-12T07:08:14;150766.31;;;-1.36;78.27
10127;BME280;13080;42.608;23.362;2023-02-12T07:10:47;150763.72;;;-1.37;78.00
10127;BME280;13080;42.608;23.362;2023-02-12T07:13:14;150770.19;;;-1.34;77.67
10127;BME280;13080;42.608;23.362;2023-02-12T07:15:40;150763.72;;;-1.37;79.24
10127;BME280;13080;42.608;23.362;2023-02-12T07:18:07;150754.75;;;-1.40;79.52
10127;BME280;13080;42.608;23.362;2023-02-12T07:20:34;150759.91;;;-1.38;79.23
10127;BME280;13080;42.608;23.362;2023-02-12T07:23:00;150757.31;;;-1.39;79.55
10127;BME280;13080;42.608;23.362;2023-02-12T07:25:27;150757.31;;;-1.39;79.65
10127;BME280;13080;42.608;23.362;2023-02-12T07:27:55;150762.44;;;-1.37;80.12
10127;BME280;13080;42.608;23.362;2023-02-12T07:30:22;150757.31;;;-1.39;80.43
10127;BME280;13080;42.608;23.362;2023-02-12T07:32:49;150748.34;;;-1.43;80.80
10127;BME280;13080;42.608;23.362;2023-02-12T07:35:15;150747.06;;;-1.43;81.72
10127;BME280;13080;42.608;23.362;2023-02-12T07:37:42;150741.91;;;-1.45;81.28
10127;BME280;13080;42.608;23.362;2023-02-12T07:40:09;150756.03;;;-1.40;81.06
10127;BME280;13080;42.608;23.362;2023-02-12T07:42:36;150752.16;;;-1.41;81.52
10127;BME280;13080;42.608;23.362;2023-02-12T07:45:05;150762.44;;;-1.37;81.30
10127;BME280;13080;42.608;23.362;2023-02-12T07:47:32;150745.72;;;-1.44;82.39
10127;BME280;13080;42.608;23.362;2023-02-12T07:50:00;150732.88;;;-1.49;82.70
10127;BME280;13080;42.608;23.362;2023-02-12T07:52:26;150720.03;;;-1.54;82.89
10127;BME280;13080;42.608;23.362;2023-02-12T07:54:53;150734.16;;;-1.49;82.09
10127;BME280;13080;42.608;23.362;2023-02-12T07:57:20;150711.00;;;-1.58;83.58
10127;BME280;13080;42.608;23.362;2023-02-12T07:59:46;150695.56;;;-1.64;83.90
10127;BME280;13080;42.608;23.362;2023-02-12T08:02:15;150693.03;;;-1.65;83.93
10127;BME280;13080;42.608;23.362;2023-02-12T08:04:41;150700.72;;;-1.62;84.42
10127;BME280;13080;42.608;23.362;2023-02-12T08:07:08;150673.69;;;-1.73;84.77
10127;BME280;13080;42.608;23.362;2023-02-12T08:09:35;150687.88;;;-1.67;85.53
10127;BME280;13080;42.608;23.362;2023-02-12T08:12:01;150673.69;;;-1.73;85.37
10127;BME280;13080;42.608;23.362;2023-02-12T08:14:28;150672.44;;;-1.73;85.99
10127;BME280;13080;42.608;23.362;2023-02-12T08:16:55;150666.00;;;-1.76;86.83
10127;BME280;13080;42.608;23.362;2023-02-12T08:19:24;150689.16;;;-1.67;86.01
10127;BME280;13080;42.608;23.362;2023-02-12T08:21:52;150689.16;;;-1.67;86.41
10127;BME280;13080;42.608;23.362;2023-02-12T08:24:19;150716.16;;;-1.56;86.91
10127;BME280;13080;42.608;23.362;2023-02-12T08:26:46;150723.88;;;-1.53;86.39
10127;BME280;13080;42.608;23.362;2023-02-12T08:29:16;150732.88;;;-1.49;86.03
10127;BME280;13080;42.608;23.362;2023-02-12T08:31:45;150716.16;;;-1.56;86.46
10127;BME280;13080;42.608;23.362;2023-02-12T08:34:16;150707.13;;;-1.59;86.61
10127;BME280;13080;42.608;23.362;2023-02-12T08:36:46;150711.00;;;-1.58;87.41
10127;BME280;13080;42.608;23.362;2023-02-12T08:39:14;150698.16;;;-1.63;87.61
10127;BME280;13080;42.608;23.362;2023-02-12T08:41:41;150705.88;;;-1.60;87.96
10127;BME280;13080;42.608;23.362;2023-02-12T08:44:09;150736.75;;;-1.48;87.20
10127;BME280;13080;42.608;23.362;2023-02-12T08:46:37;150734.16;;;-1.49;87.85
10127;BME280;13080;42.608;23.362;2023-02-12T08:49:06;150738.03;;;-1.47;87.70
10127;BME280;13080;42.608;23.362;2023-02-12T08:51:35;150762.44;;;-1.37;87.06
10127;BME280;13080;42.608;23.362;2023-02-12T08:54:06;150767.59;;;-1.35;86.87
10127;BME280;13080;42.608;23.362;2023-02-12T08:56:34;150788.19;;;-1.27;86.41
10127;BME280;13080;42.608;23.362;2023-02-12T08:59:02;150803.66;;;-1.21;86.25
10127;BME280;13080;42.608;23.362;2023-02-12T09:01:32;150767.59;;;-1.35;86.82
10127;BME280;13080;42.608;23.362;2023-02-12T09:03:59;150779.19;;;-1.31;86.15
10127;BME280;13080;42.608;23.362;2023-02-12T09:06:26;150747.06;;;-1.43;86.69
10127;BME280;13080;42.608;23.362;2023-02-12T09:08:54;150745.72;;;-1.44;87.94
10127;BME280;13080;42.608;23.362;2023-02-12T09:11:24;150767.59;;;-1.35;86.57
10127;BME280;13080;42.608;23.362;2023-02-12T09:13:56;150804.94;;;-1.20;86.17
10127;BME280;13080;42.608;23.362;2023-02-12T09:16:23;150798.50;;;-1.23;85.41
10127;BME280;13080;42.608;23.362;2023-02-12T09:18:50;150813.91;;;-1.17;86.65
10127;BME280;13080;42.608;23.362;2023-02-12T09:21:17;150788.19;;;-1.27;86.34
10127;BME280;13080;42.608;23.362;2023-02-12T09:23:44;150771.47;;;-1.34;87.15
10127;BME280;13080;42.608;23.362;2023-02-12T09:26:14;150790.75;;;-1.26;86.80
10127;BME280;13080;42.608;23.362;2023-02-12T09:28:43;150812.63;;;-1.17;86.70
10127;BME280;13080;42.608;23.362;2023-02-12T09:31:11;150819.06;;;-1.15;86.45
10127;BME280;13080;42.608;23.362;2023-02-12T09:33:39;150862.81;;;-0.97;86.56
10127;BME280;13080;42.608;23.362;2023-02-12T09:36:08;150853.78;;;-1.01;86.57
10127;BME280;13080;42.608;23.362;2023-02-12T09:38:35;150843.53;;;-1.05;86.01
10127;BME280;13080;42.608;23.362;2023-02-12T09:41:23;150862.81;;;-0.97;85.98
10127;BME280;13080;42.608;23.362;2023-02-12T09:44:01;150880.81;;;-0.90;85.42
10127;BME280;13080;42.608;23.362;2023-02-12T09:46:32;150916.88;;;-0.76;85.87
10127;BME280;13080;42.608;23.362;2023-02-12T09:49:07;150931.00;;;-0.70;85.30
10127;BME280;13080;42.608;23.362;2023-02-12T09:51:35;150945.19;;;-0.65;84.28
10127;BME280;13080;42.608;23.362;2023-02-12T09:54:05;150970.91;;;-0.54;84.44
10127;BME280;13080;42.608;23.362;2023-02-12T09:56:34;150967.06;;;-0.56;83.56
10127;BME280;13080;42.608;23.362;2023-02-12T09:59:05;151010.78;;;-0.38;83.20
10127;BME280;13080;42.608;23.362;2023-02-12T10:01:34;150991.50;;;-0.46;82.66
10127;BME280;13080;42.608;23.362;2023-02-12T10:04:01;151014.69;;;-0.37;82.46
10127;BME280;13080;42.608;23.362;2023-02-12T10:06:34;151049.44;;;-0.23;83.02
10127;BME280;13080;42.608;23.362;2023-02-12T10:09:14;151058.47;;;-0.19;82.23
10127;BME280;13080;42.608;23.362;2023-02-12T10:11:55;151048.16;;;-0.24;83.18
10127;BME280;13080;42.608;23.362;2023-02-12T10:14:42;151086.78;;;-0.08;83.08
10127;BME280;13080;42.608;23.362;2023-02-12T10:17:18;151138.28;;;0.12;82.49
10127;BME280;13080;42.608;23.362;2023-02-12T10:20:04;151158.91;;;0.20;81.60
10127;BME280;13080;42.608;23.362;2023-02-12T10:22:42;151147.31;;;0.16;81.27
10127;BME280;13080;42.608;23.362;2023-02-12T10:25:20;151076.47;;;-0.12;82.11
10127;BME280;13080;42.608;23.362;2023-02-12T10:27:51;151095.78;;;-0.05;83.06
10127;BME280;13080;42.608;23.362;2023-02-12T10:30:23;151082.91;;;-0.10;82.39
10127;BME280;13080;42.608;23.362;2023-02-12T10:32:52;151085.50;;;-0.09;83.26
10127;BME280;13080;42.608;23.362;2023-02-12T10:35:21;151086.78;;;-0.08;83.09
10127;BME280;13080;42.608;23.362;2023-02-12T10:37:53;151044.28;;;-0.25;83.71
10127;BME280;13080;42.608;23.362;2023-02-12T10:40:23;151005.66;;;-0.40;85.10
10127;BME280;13080;42.608;23.362;2023-02-12T10:42:53;151004.38;;;-0.41;84.93
10127;BME280;13080;42.608;23.362;2023-02-12T10:45:25;151035.28;;;-0.29;84.00
10127;BME280;13080;42.608;23.362;2023-02-12T10:48:06;151073.91;;;-0.13;83.31
10127;BME280;13080;42.608;23.362;2023-02-12T10:50:50;151094.50;;;-0.05;83.10
10127;BME280;13080;42.608;23.362;2023-02-12T10:53:22;151124.09;;;0.07;83.04
10127;BME280;13080;42.608;23.362;2023-02-12T10:55:49;151127.97;;;0.08;82.70
10127;BME280;13080;42.608;23.362;2023-02-12T10:58:29;151072.59;;;-0.14;82.68
10127;BME280;13080;42.608;23.362;2023-02-12T11:00:59;151076.47;;;-0.12;84.58
10127;BME280;13080;42.608;23.362;2023-02-12T11:03:29;151045.59;;;-0.25;84.21
10127;BME280;13080;42.608;23.362;2023-02-12T11:06:11;151062.34;;;-0.18;84.75
10127;BME280;13080;42.608;23.362;2023-02-12T11:08:39;151100.94;;;-0.03;84.09
10127;BME280;13080;42.608;23.362;2023-02-12T11:11:09;151164.06;;;0.23;82.23
10127;BME280;13080;42.608;23.362;2023-02-12T11:13:38;151218.16;;;0.44;82.11
10127;BME280;13080;42.608;23.362;2023-02-12T11:16:07;151251.63;;;0.57;82.54
10127;BME280;13080;42.608;23.362;2023-02-12T11:18:34;151269.66;;;0.65;81.97
10127;BME280;13080;42.608;23.362;2023-02-12T11:21:05;151290.31;;;0.73;80.64
10127;BME280;13080;42.608;23.362;2023-02-12T11:23:33;151264.50;;;0.62;81.11
10127;BME280;13080;42.608;23.362;2023-02-12T11:26:03;151269.66;;;0.65;80.97
10127;BME280;13080;42.608;23.362;2023-02-12T11:28:31;151277.44;;;0.68;81.52
10127;BME280;13080;42.608;23.362;2023-02-12T11:31:00;151310.94;;;0.81;81.13
10127;BME280;13080;42.608;23.362;2023-02-12T11:33:31;151330.25;;;0.89;80.09
10127;BME280;13080;42.608;23.362;2023-02-12T11:36:02;151357.31;;;0.99;79.50
10127;BME280;13080;42.608;23.362;2023-02-12T11:38:33;151407.59;;;1.19;79.18
10127;BME280;13080;42.608;23.362;2023-02-12T11:41:07;151483.63;;;1.50;77.80
10127;BME280;13080;42.608;23.362;2023-02-12T11:43:44;151501.69;;;1.57;78.17
10127;BME280;13080;42.608;23.362;2023-02-12T11:46:18;151523.59;;;1.65;76.68
10127;BME280;13080;42.608;23.362;2023-02-12T11:48:48;151519.78;;;1.64;76.70
10127;BME280;13080;42.608;23.362;2023-02-12T11:51:20;151487.50;;;1.51;77.79
10127;BME280;13080;42.608;23.362;2023-02-12T11:53:49;151450.13;;;1.36;77.72
10127;BME280;13080;42.608;23.362;2023-02-12T11:56:17;151473.31;;;1.45;77.32
10127;BME280;13080;42.608;23.362;2023-02-12T11:58:45;151455.28;;;1.38;77.73
10127;BME280;13080;42.608;23.362;2023-02-12T12:01:17;151435.94;;;1.31;77.61
10127;BME280;13080;42.608;23.362;2023-02-12T12:03:52;151396.00;;;1.15;78.94
10127;BME280;13080;42.608;23.362;2023-02-12T12:06:33;151432.06;;;1.29;78.09
10127;BME280;13080;42.608;23.362;2023-02-12T12:09:11;151396.00;;;1.15;77.90
10127;BME280;13080;42.608;23.362;2023-02-12T12:11:46;151366.31;;;1.03;78.74
10127;BME280;13080;42.608;23.362;2023-02-12T12:14:17;151350.88;;;0.97;79.13
10127;BME280;13080;42.608;23.362;2023-02-12T12:16:51;151363.75;;;1.02;79.41
10127;BME280;13080;42.608;23.362;2023-02-12T12:19:42;151430.78;;;1.29;79.58
10127;BME280;13080;42.608;23.362;2023-02-12T12:22:25;151531.38;;;1.69;78.72
10127;BME280;13080;42.608;23.362;2023-02-12T12:24:57;151550.69;;;1.76;77.15
10127;BME280;13080;42.608;23.362;2023-02-12T12:27:32;151513.28;;;1.61;76.70
10127;BME280;13080;42.608;23.362;2023-02-12T12:30:23;151499.13;;;1.56;77.69
10127;BME280;13080;42.608;23.362;2023-02-12T12:32:56;151548.13;;;1.75;77.82
10127;BME280;13080;42.608;23.362;2023-02-12T12:35:42;151594.56;;;1.94;75.59
10127;BME280;13080;42.608;23.362;2023-02-12T12:38:19;151501.69;;;1.57;74.97
10127;BME280;13080;42.608;23.362;2023-02-12T12:41:01;151518.44;;;1.63;75.32
10127;BME280;13080;42.608;23.362;2023-02-12T12:43:39;151535.22;;;1.70;74.23
10127;BME280;13080;42.608;23.362;2023-02-12T12:46:20;151537.81;;;1.71;74.61
10127;BME280;13080;42.608;23.362;2023-02-12T12:49:01;151545.53;;;1.74;74.88
10127;BME280;13080;42.608;23.362;2023-02-12T12:51:44;151576.50;;;1.86;73.86
10127;BME280;13080;42.608;23.362;2023-02-12T12:54:25;151575.19;;;1.86;74.31
10127;BME280;13080;42.608;23.362;2023-02-12T12:57:04;151536.53;;;1.71;72.86
10127;BME280;13080;42.608;23.362;2023-02-12T13:00:05;151504.28;;;1.58;74.95
10127;BME280;13080;42.608;23.362;2023-02-12T13:03:00;151469.47;;;1.44;75.95
10127;BME280;13080;42.608;23.362;2023-02-12T13:05:51;151508.16;;;1.59;74.88